createdAt,value
2022-10-30T00:00:29.285Z,15.27
2022-10-30T00:02:56.331Z,11.85
2022-10-30T00:05:23.499Z,16.38
2022-10-30T00:07:50.609Z,19.95
2022-10-30T00:10:18.074Z,11.38
2022-10-30T00:12:44.823Z,13.32
2022-10-30T00:15:11.797Z,10.77
2022-10-30T00:17:38.513Z,12.88
2022-10-30T00:20:05.741Z,13.48
2022-10-30T00:22:32.386Z,18.45
2022-10-30T00:24:59.061Z,15.60
2022-10-30T00:27:25.754Z,12.45
2022-10-30T00:29:52.386Z,11.00
2022-10-30T00:32:19.145Z,19.85
2022-10-30T00:34:45.772Z,16.15
2022-10-30T00:37:12.450Z,15.43
2022-10-30T00:39:40.402Z,13.55
2022-10-30T00:42:12.636Z,19.85
2022-10-30T00:44:49.482Z,13.33
2022-10-30T00:47:37.996Z,15.38
2022-10-30T00:50:11.165Z,14.43
2022-10-30T00:52:44.590Z,12.25
2022-10-30T00:55:17.964Z,15.43
2022-10-30T00:57:46.417Z,12.85
2022-10-30T01:00:14.545Z,15.98
2022-10-30T01:02:43.869Z,19.65
2022-10-30T01:05:15.696Z,10.43
2022-10-30T01:07:42.471Z,13.05
2022-10-30T01:10:10.273Z,16.88
2022-10-30T01:12:38.093Z,13.02
2022-10-30T01:15:06.392Z,16.80
2022-10-30T01:18:05.434Z,17.02
2022-10-30T01:20:38.123Z,13.40
2022-10-30T01:23:33.986Z,11.73
2022-10-30T01:26:23.741Z,17.77
2022-10-30T01:29:27.887Z,16.52
2022-10-30T01:31:54.771Z,11.85
2022-10-30T01:34:33.407Z,19.27
2022-10-30T01:37:06.193Z,13.95
2022-10-30T01:39:38.196Z,13.90
2022-10-30T01:42:41.742Z,13.95
2022-10-30T01:45:11.565Z,14.73
2022-10-30T01:48:03.390Z,14.40
2022-10-30T01:50:43.542Z,10.75
2022-10-30T01:53:43.168Z,13.18
2022-10-30T01:56:17.528Z,11.07
2022-10-30T01:58:47.276Z,13.88
2022-10-30T02:01:14.209Z,12.75
2022-10-30T02:03:41.082Z,18.80
2022-10-30T02:06:07.930Z,18.08
2022-10-30T02:08:34.628Z,24.05
2022-10-30T02:11:01.870Z,18.33
2022-10-30T02:13:38.785Z,20.17
2022-10-30T02:16:06.088Z,15.55
2022-10-30T02:18:33.030Z,15.13
2022-10-30T02:21:01.140Z,16.48
2022-10-30T02:23:27.904Z,19.65
2022-10-30T02:25:55.076Z,19.05
2022-10-30T02:28:21.870Z,18.73
2022-10-30T02:30:49.047Z,15.25
2022-10-30T02:35:45.361Z,16.73
2022-10-30T02:38:12.101Z,21.95
2022-10-30T02:40:38.863Z,18.63
2022-10-30T02:43:07.688Z,17.70
2022-10-30T02:45:34.406Z,21.73
2022-10-30T02:48:02.583Z,18.33
2022-10-30T02:50:30.459Z,20.52
2022-10-30T02:52:59.331Z,14.25
2022-10-30T02:55:27.411Z,14.38
2022-10-30T02:57:55.209Z,13.25
2022-10-30T03:00:22.445Z,19.73
2022-10-30T03:05:26.370Z,15.60
2022-10-30T03:07:55.046Z,14.98
2022-10-30T03:10:22.884Z,12.13
2022-10-30T03:12:49.606Z,12.70
2022-10-30T03:15:16.456Z,17.85
2022-10-30T03:17:43.489Z,13.68
2022-10-30T03:20:11.573Z,11.27
2022-10-30T03:22:38.262Z,13.15
2022-10-30T03:25:05.546Z,11.52
2022-10-30T03:27:33.923Z,21.92
2022-10-30T03:30:00.582Z,18.80
2022-10-30T03:32:28.680Z,16.80
2022-10-30T03:34:55.425Z,15.38
2022-10-30T03:37:22.303Z,19.70
2022-10-30T03:39:49.885Z,17.38
2022-10-30T03:42:16.817Z,27.42
2022-10-30T03:44:43.517Z,18.83
2022-10-30T03:49:44.213Z,18.65
2022-10-30T03:52:14.113Z,14.75
2022-10-30T03:54:40.770Z,28.85
2022-10-30T03:57:08.002Z,18.55
2022-10-30T03:59:44.352Z,17.13
2022-10-30T04:02:29.491Z,14.63
2022-10-30T04:04:56.273Z,19.20
2022-10-30T04:07:22.997Z,11.15
2022-10-30T04:09:49.655Z,12.50
2022-10-30T04:12:16.346Z,15.77
2022-10-30T04:14:43.012Z,13.20
2022-10-30T04:19:37.574Z,15.00
2022-10-30T04:22:04.403Z,13.98
2022-10-30T04:24:31.122Z,15.82
2022-10-30T04:26:58.196Z,13.73
2022-10-30T04:29:24.842Z,19.33
2022-10-30T04:31:52.120Z,13.70
2022-10-30T04:34:19.726Z,18.88
2022-10-30T04:36:46.968Z,18.42
2022-10-30T04:39:13.844Z,25.42
2022-10-30T04:41:41.815Z,18.48
2022-10-30T04:44:16.031Z,15.05
2022-10-30T04:46:43.022Z,25.60
2022-10-30T04:49:10.853Z,20.00
2022-10-30T04:51:37.492Z,18.50
2022-10-30T04:54:06.233Z,20.52
2022-10-30T04:56:33.150Z,13.50
2022-10-30T04:59:00.307Z,18.23
2022-10-30T05:01:27.238Z,15.70
2022-10-30T05:03:54.988Z,12.55
2022-10-30T05:06:24.693Z,18.13
2022-10-30T05:08:51.409Z,13.90
2022-10-30T05:11:30.955Z,16.98
2022-10-30T05:13:57.622Z,14.23
2022-10-30T05:16:24.378Z,13.60
2022-10-30T05:18:51.805Z,14.40
2022-10-30T05:21:18.554Z,15.45
2022-10-30T05:23:46.730Z,12.63
2022-10-30T05:26:13.404Z,15.23
2022-10-30T05:28:41.466Z,14.63
2022-10-30T05:31:08.522Z,15.18
2022-10-30T05:34:07.491Z,21.27
2022-10-30T05:36:35.737Z,16.50
2022-10-30T05:39:04.737Z,16.70
2022-10-30T05:41:43.765Z,16.35
2022-10-30T05:44:10.507Z,13.90
2022-10-30T05:46:40.845Z,16.08
2022-10-30T05:49:24.924Z,21.38
2022-10-30T05:51:52.154Z,16.67
2022-10-30T05:54:18.906Z,19.20
2022-10-30T05:57:01.367Z,18.95
2022-10-30T05:59:30.243Z,14.85
2022-10-30T06:01:58.271Z,14.05
2022-10-30T06:04:25.112Z,13.95
2022-10-30T06:06:52.062Z,13.48
2022-10-30T06:09:18.738Z,11.98
2022-10-30T06:12:05.912Z,12.23
2022-10-30T06:14:51.105Z,15.95
2022-10-30T06:17:17.765Z,14.13
2022-10-30T06:19:55.281Z,13.48
2022-10-30T06:22:54.736Z,16.80
2022-10-30T06:25:24.005Z,11.98
2022-10-30T06:27:57.597Z,14.13
2022-10-30T06:30:28.791Z,14.52
2022-10-30T06:33:00.004Z,18.90
2022-10-30T06:35:28.594Z,13.02
2022-10-30T06:38:00.405Z,13.20
2022-10-30T06:40:30.338Z,15.13
2022-10-30T06:43:15.856Z,14.48
2022-10-30T06:45:47.749Z,16.13
2022-10-30T06:48:14.594Z,17.77
2022-10-30T06:50:46.784Z,22.42
2022-10-30T06:53:13.718Z,16.13
2022-10-30T06:55:41.070Z,19.50
2022-10-30T06:58:39.462Z,14.80
2022-10-30T07:03:56.823Z,17.48
2022-10-30T07:06:23.704Z,14.65
2022-10-30T07:08:50.362Z,19.10
2022-10-30T07:11:17.337Z,16.38
2022-10-30T07:13:58.365Z,19.05
2022-10-30T07:16:37.239Z,20.67
2022-10-30T07:19:05.095Z,24.05
2022-10-30T07:21:33.405Z,25.23
2022-10-30T07:24:02.573Z,18.55
2022-10-30T07:26:37.874Z,19.15
2022-10-30T07:29:20.986Z,20.98
2022-10-30T07:32:04.674Z,23.05
2022-10-30T07:34:48.541Z,20.00
2022-10-30T07:37:34.893Z,19.42
2022-10-30T07:40:12.482Z,24.38
2022-10-30T07:42:59.912Z,23.50
2022-10-30T07:45:45.832Z,18.95
2022-10-30T07:48:34.902Z,26.75
2022-10-30T07:51:07.117Z,21.30
2022-10-30T07:53:33.878Z,21.65
2022-10-30T07:56:01.024Z,22.13
2022-10-30T07:59:02.690Z,18.77
2022-10-30T08:01:49.808Z,20.88
2022-10-30T08:04:27.913Z,17.67
2022-10-30T08:07:00.047Z,21.35
2022-10-30T08:09:27.396Z,22.08
2022-10-30T08:11:54.170Z,24.85
2022-10-30T08:14:21.094Z,20.63
2022-10-30T08:16:47.798Z,20.98
2022-10-30T08:19:15.002Z,19.90
2022-10-30T08:21:42.234Z,15.20
2022-10-30T08:24:14.955Z,19.10
2022-10-30T08:26:45.199Z,15.65
2022-10-30T08:29:12.626Z,15.98
2022-10-30T08:31:40.223Z,17.25
2022-10-30T08:34:22.137Z,19.25
2022-10-30T08:36:54.178Z,19.67
2022-10-30T08:39:21.147Z,18.23
2022-10-30T08:42:00.278Z,21.80
2022-10-30T08:44:32.513Z,20.02
2022-10-30T08:47:31.926Z,22.52
2022-10-30T08:49:58.724Z,18.92
2022-10-30T08:52:28.675Z,18.25
2022-10-30T08:54:56.570Z,23.42
2022-10-30T08:57:26.287Z,23.25
2022-10-30T08:59:55.278Z,24.08
2022-10-30T09:02:42.104Z,23.75
2022-10-30T09:05:27.413Z,22.83
2022-10-30T09:08:14.134Z,21.90
2022-10-30T09:11:07.088Z,20.58
2022-10-30T09:13:33.985Z,26.08
2022-10-30T09:16:03.119Z,22.70
2022-10-30T09:18:32.668Z,25.27
2022-10-30T09:21:03.093Z,21.83
2022-10-30T09:23:35.143Z,21.98
2022-10-30T09:26:20.949Z,21.25
2022-10-30T09:29:03.104Z,17.35
2022-10-30T09:31:48.453Z,20.08
2022-10-30T09:34:19.298Z,17.63
2022-10-30T09:36:54.736Z,20.42
2022-10-30T09:39:22.745Z,25.00
2022-10-30T09:42:25.383Z,29.30
2022-10-30T09:45:29.221Z,22.25
2022-10-30T09:48:15.331Z,23.80
2022-10-30T09:51:14.546Z,22.37
2022-10-30T09:56:36.022Z,22.92
2022-10-30T09:59:17.558Z,21.50
2022-10-30T10:01:49.660Z,20.65
2022-10-30T10:04:27.028Z,20.00
2022-10-30T10:07:40.313Z,18.23
2022-10-30T10:10:42.201Z,21.17
2022-10-30T10:13:28.434Z,17.83
2022-10-30T10:16:16.050Z,20.83
2022-10-30T10:18:47.161Z,19.65
2022-10-30T10:21:28.210Z,20.83
2022-10-30T10:23:58.199Z,22.13
2022-10-30T10:26:47.706Z,17.17
2022-10-30T10:29:34.013Z,22.90
2022-10-30T10:32:19.077Z,23.35
2022-10-30T10:35:08.047Z,24.73
2022-10-30T10:37:45.263Z,19.88
2022-10-30T10:40:26.526Z,19.85
2022-10-30T10:43:19.850Z,22.67
2022-10-30T10:46:07.798Z,27.52
2022-10-30T10:48:48.518Z,21.30
2022-10-30T10:51:26.773Z,21.95
2022-10-30T10:54:02.745Z,20.00
2022-10-30T10:56:39.481Z,21.42
2022-10-30T10:59:20.822Z,21.70
2022-10-30T11:02:26.296Z,20.40
2022-10-30T11:04:55.525Z,20.17
2022-10-30T11:07:29.838Z,17.95
2022-10-30T11:09:57.884Z,20.65
2022-10-30T11:12:33.937Z,20.30
2022-10-30T11:15:55.465Z,17.92
2022-10-30T11:18:22.156Z,23.20
2022-10-30T11:21:08.317Z,24.50
2022-10-30T11:23:43.132Z,19.35
2022-10-30T11:26:18.313Z,22.33
2022-10-30T11:28:55.918Z,26.50
2022-10-30T11:31:24.078Z,19.52
2022-10-30T11:33:51.497Z,32.30
2022-10-30T11:36:22.921Z,22.70
2022-10-30T11:38:50.153Z,18.23
2022-10-30T11:41:18.156Z,22.73
2022-10-30T11:43:45.437Z,20.05
2022-10-30T11:46:22.474Z,21.05
2022-10-30T11:48:54.836Z,30.30
2022-10-30T11:51:52.337Z,23.67
2022-10-30T11:54:21.427Z,19.40
2022-10-30T11:56:52.041Z,25.40
2022-10-30T11:59:22.949Z,19.98
2022-10-30T12:02:18.072Z,17.83
2022-10-30T12:04:44.876Z,16.80
2022-10-30T12:07:32.965Z,13.90
2022-10-30T12:10:00.517Z,20.33
2022-10-30T12:12:31.659Z,15.55
2022-10-30T12:15:10.538Z,16.52
2022-10-30T12:17:39.477Z,15.60
2022-10-30T12:20:07.915Z,16.45
2022-10-30T12:22:35.634Z,21.85
2022-10-30T12:25:07.191Z,21.17
2022-10-30T12:27:37.236Z,18.50
2022-10-30T12:30:19.222Z,18.85
2022-10-30T12:32:50.987Z,17.48
2022-10-30T12:35:39.283Z,18.42
2022-10-30T12:38:44.236Z,20.48
2022-10-30T12:41:25.511Z,19.08
2022-10-30T12:44:02.823Z,14.15
2022-10-30T12:46:35.890Z,19.55
2022-10-30T12:49:10.971Z,17.92
2022-10-30T12:52:01.443Z,16.08
2022-10-30T12:54:30.822Z,18.63
2022-10-30T12:57:08.230Z,21.75
2022-10-30T12:59:39.527Z,19.75
2022-10-30T13:02:34.570Z,19.33
2022-10-30T13:05:18.758Z,20.35
2022-10-30T13:07:51.665Z,14.40
2022-10-30T13:10:28.690Z,18.65
2022-10-30T13:13:01.969Z,21.15
2022-10-30T13:15:33.720Z,16.10
2022-10-30T13:18:13.878Z,17.52
2022-10-30T13:20:41.226Z,14.23
2022-10-30T13:23:14.614Z,24.60
2022-10-30T13:26:09.963Z,20.55
2022-10-30T13:29:01.665Z,21.48
2022-10-30T13:31:50.603Z,18.60
2022-10-30T13:34:29.142Z,20.52
2022-10-30T13:36:57.914Z,18.52
2022-10-30T13:39:46.789Z,15.18
2022-10-30T13:42:30.321Z,17.55
2022-10-30T13:45:17.824Z,16.75
2022-10-30T13:48:20.565Z,20.25
2022-10-30T13:51:28.796Z,14.88
2022-10-30T13:54:25.365Z,19.27
2022-10-30T13:56:53.498Z,13.60
2022-10-30T13:59:24.254Z,20.38
2022-10-30T14:02:13.114Z,20.25
2022-10-30T14:05:01.576Z,18.30
2022-10-30T14:08:05.240Z,18.70
2022-10-30T14:10:47.136Z,21.25
2022-10-30T14:13:27.038Z,19.33
2022-10-30T14:16:07.510Z,15.30
2022-10-30T14:19:02.774Z,17.45
2022-10-30T14:21:31.622Z,18.10
2022-10-30T14:24:17.088Z,17.23
2022-10-30T14:26:50.095Z,19.67
2022-10-30T14:29:34.436Z,17.45
2022-10-30T14:32:13.817Z,23.17
2022-10-30T14:34:50.171Z,21.02
2022-10-30T14:37:36.751Z,18.95
2022-10-30T14:40:37.245Z,14.57
2022-10-30T14:43:14.835Z,15.60
2022-10-30T14:45:44.679Z,14.18
2022-10-30T14:48:30.381Z,20.35
2022-10-30T14:51:02.957Z,17.73
2022-10-30T14:54:07.434Z,16.50
2022-10-30T14:56:54.390Z,22.50
2022-10-30T14:59:32.679Z,13.85
2022-10-30T15:02:05.407Z,16.80
2022-10-30T15:05:10.025Z,16.77
2022-10-30T15:08:00.228Z,13.80
2022-10-30T15:10:36.114Z,15.85
2022-10-30T15:13:22.472Z,18.63
2022-10-30T15:16:06.921Z,20.50
2022-10-30T15:18:34.303Z,14.75
2022-10-30T15:21:05.875Z,14.52
2022-10-30T15:23:37.018Z,14.32
2022-10-30T15:26:16.693Z,16.50
2022-10-30T15:28:43.711Z,20.25
2022-10-30T15:31:27.283Z,16.20
2022-10-30T15:33:55.337Z,15.32
2022-10-30T15:36:30.942Z,19.20
2022-10-30T15:39:18.826Z,14.27
2022-10-30T15:41:48.571Z,13.68
2022-10-30T15:44:22.258Z,16.65
2022-10-30T15:46:54.476Z,18.83
2022-10-30T15:49:40.141Z,16.73
2022-10-30T15:52:24.949Z,16.65
2022-10-30T15:54:58.911Z,14.00
2022-10-30T15:58:02.280Z,14.95
2022-10-30T16:00:36.005Z,15.38
2022-10-30T16:03:15.885Z,22.95
2022-10-30T16:05:42.717Z,18.20
2022-10-30T16:08:20.642Z,17.05
2022-10-30T16:10:48.471Z,21.17
2022-10-30T16:13:18.904Z,21.77
2022-10-30T16:15:47.452Z,17.42
2022-10-30T16:18:23.476Z,18.40
2022-10-30T16:20:52.936Z,17.70
2022-10-30T16:23:21.110Z,19.73
2022-10-30T16:25:55.371Z,19.17
2022-10-30T16:28:29.938Z,18.13
2022-10-30T16:31:02.511Z,22.40
2022-10-30T16:33:30.768Z,17.95
2022-10-30T16:35:58.196Z,18.02
2022-10-30T16:38:28.700Z,17.15
2022-10-30T16:40:56.285Z,14.57
2022-10-30T16:43:28.093Z,17.25
2022-10-30T16:45:56.470Z,15.35
2022-10-30T16:48:29.415Z,19.98
2022-10-30T16:51:02.258Z,19.20
2022-10-30T16:53:29.780Z,16.55
2022-10-30T16:55:58.492Z,17.20
2022-10-30T16:58:29.282Z,26.45
2022-10-30T17:01:02.525Z,17.50
2022-10-30T17:03:33.803Z,18.73
2022-10-30T17:06:04.232Z,24.33
2022-10-30T17:08:42.450Z,20.40
2022-10-30T17:11:20.393Z,27.67
2022-10-30T17:13:52.819Z,19.13
2022-10-30T17:18:53.384Z,23.77
2022-10-30T17:21:40.370Z,21.42
2022-10-30T17:24:20.090Z,27.92
2022-10-30T17:26:56.298Z,23.83
2022-10-30T17:29:37.944Z,25.70
2022-10-30T17:32:06.563Z,27.90
2022-10-30T17:34:39.365Z,26.38
2022-10-30T17:37:06.039Z,20.40
2022-10-30T17:39:32.719Z,23.80
2022-10-30T17:41:59.372Z,22.58
2022-10-30T17:44:26.558Z,22.13
2022-10-30T17:46:54.488Z,24.73
2022-10-30T17:49:24.048Z,23.75
2022-10-30T17:51:50.805Z,23.00
2022-10-30T17:54:17.543Z,28.67
2022-10-30T17:56:44.493Z,25.83
2022-10-30T17:59:11.120Z,23.92
2022-10-30T18:01:37.936Z,25.17
2022-10-30T18:04:20.511Z,22.40
2022-10-30T18:06:48.232Z,21.42
2022-10-30T18:09:15.020Z,21.83
2022-10-30T18:11:41.674Z,27.92
2022-10-30T18:14:10.917Z,19.52
2022-10-30T18:16:38.403Z,22.92
2022-10-30T18:19:10.003Z,21.33
2022-10-30T18:21:36.727Z,26.40
2022-10-30T18:24:08.225Z,32.78
2022-10-30T18:26:40.083Z,23.90
2022-10-30T18:31:34.227Z,24.52
2022-10-30T18:34:00.880Z,22.25
2022-10-30T18:36:27.633Z,23.27
2022-10-30T18:38:54.661Z,21.40
2022-10-30T18:41:36.967Z,24.88
2022-10-30T18:44:04.587Z,26.85
2022-10-30T18:46:33.147Z,28.08
2022-10-30T18:49:00.129Z,21.65
2022-10-30T18:51:28.119Z,26.80
2022-10-30T18:53:56.680Z,28.48
2022-10-30T18:56:28.362Z,20.92
2022-10-30T18:59:01.682Z,22.47
2022-10-30T19:01:31.596Z,26.95
2022-10-30T19:04:01.072Z,21.27
2022-10-30T19:06:28.477Z,19.80
2022-10-30T19:08:55.306Z,19.50
2022-10-30T19:11:24.887Z,25.13
2022-10-30T19:13:53.029Z,18.20
2022-10-30T19:16:20.720Z,20.60
2022-10-30T19:18:48.393Z,22.63
2022-10-30T19:21:17.522Z,28.63
2022-10-30T19:23:44.714Z,19.75
2022-10-30T19:26:13.096Z,19.90
2022-10-30T19:28:40.967Z,25.73
2022-10-30T19:31:11.130Z,24.75
2022-10-30T19:33:37.790Z,28.85
2022-10-30T19:36:04.959Z,25.77
2022-10-30T19:38:32.935Z,28.98
2022-10-30T19:41:00.088Z,35.20
2022-10-30T19:43:26.885Z,27.98
2022-10-30T19:45:56.611Z,33.03
2022-10-30T19:48:47.826Z,27.95
2022-10-30T19:51:11.715Z,31.92
2022-10-30T19:53:39.191Z,29.42
2022-10-30T19:56:06.300Z,28.30
2022-10-30T19:58:32.951Z,31.50
2022-10-30T20:00:59.791Z,32.10
2022-10-30T20:03:26.542Z,29.88
2022-10-30T20:05:54.102Z,28.65
2022-10-30T20:08:23.010Z,28.67
2022-10-30T20:10:58.036Z,32.10
2022-10-30T20:13:26.141Z,25.67
2022-10-30T20:15:54.597Z,30.00
2022-10-30T20:18:24.077Z,27.10
2022-10-30T20:20:53.214Z,31.58
2022-10-30T20:23:21.262Z,27.52
2022-10-30T20:25:49.930Z,35.17
2022-10-30T20:28:24.163Z,26.80
2022-10-30T20:30:51.838Z,29.50
2022-10-30T20:33:19.572Z,25.05
2022-10-30T20:35:47.932Z,26.58
2022-10-30T20:38:26.866Z,24.83
2022-10-30T20:40:53.878Z,22.15
2022-10-30T20:43:24.826Z,26.55
2022-10-30T20:45:51.525Z,24.17
2022-10-30T20:48:18.161Z,24.73
2022-10-30T20:50:50.356Z,25.45
2022-10-30T20:53:17.422Z,22.48
2022-10-30T20:55:45.193Z,20.70
2022-10-30T20:58:12.305Z,29.27
2022-10-30T21:00:39.093Z,25.70
2022-10-30T21:03:06.294Z,29.20
2022-10-30T21:05:45.074Z,23.98
2022-10-30T21:08:13.724Z,24.85
2022-10-30T21:10:41.498Z,28.92
2022-10-30T21:13:09.529Z,26.63
2022-10-30T21:15:41.319Z,26.23
2022-10-30T21:18:08.772Z,29.75
2022-10-30T21:20:36.163Z,23.35
2022-10-30T21:23:03.101Z,23.40
2022-10-30T21:25:31.452Z,22.73
2022-10-30T21:27:58.309Z,32.67
2022-10-30T21:30:25.061Z,25.45
2022-10-30T21:32:51.851Z,25.02
2022-10-30T21:35:18.799Z,24.83
2022-10-30T21:37:45.469Z,22.65
2022-10-30T21:40:12.810Z,18.27
2022-10-30T21:42:39.465Z,18.08
2022-10-30T21:45:07.163Z,22.25
2022-10-30T21:47:33.870Z,18.58
2022-10-30T21:50:00.500Z,21.13
2022-10-30T21:52:27.163Z,28.58
2022-10-30T21:54:53.805Z,24.63
2022-10-30T21:57:20.481Z,22.92
2022-10-30T21:59:47.136Z,21.63
2022-10-30T22:02:15.178Z,26.92
2022-10-30T22:04:41.984Z,25.40
2022-10-30T22:07:08.988Z,24.58
2022-10-30T22:09:35.744Z,20.02
2022-10-30T22:12:02.385Z,21.45
2022-10-30T22:14:29.338Z,23.20
2022-10-30T22:16:56.195Z,24.77
2022-10-30T22:19:22.916Z,20.02
2022-10-30T22:21:49.623Z,19.88
2022-10-30T22:24:17.211Z,18.60
2022-10-30T22:26:43.887Z,19.13
2022-10-30T22:29:11.536Z,19.00
2022-10-30T22:31:38.212Z,18.30
2022-10-30T22:34:04.912Z,17.08
2022-10-30T22:36:33.604Z,21.92
2022-10-30T22:39:05.951Z,20.30
2022-10-30T22:41:37.659Z,26.52
2022-10-30T22:44:07.791Z,22.40
2022-10-30T22:46:35.595Z,20.50
2022-10-30T22:49:02.343Z,21.33
2022-10-30T22:51:32.303Z,22.23
2022-10-30T22:54:01.022Z,22.65
2022-10-30T22:56:29.921Z,23.63
2022-10-30T22:58:57.323Z,21.25
2022-10-30T23:01:26.526Z,23.88
2022-10-30T23:03:56.542Z,20.75
2022-10-30T23:06:23.722Z,27.02
2022-10-30T23:08:52.541Z,29.80
2022-10-30T23:11:19.313Z,25.48
2022-10-30T23:13:46.189Z,23.35
2022-10-30T23:16:16.522Z,23.70
2022-10-30T23:18:44.238Z,24.30
2022-10-30T23:21:14.164Z,28.65
2022-10-30T23:23:42.309Z,26.45
2022-10-30T23:26:12.231Z,29.70
2022-10-30T23:28:39.076Z,27.83
2022-10-30T23:31:10.301Z,24.80
2022-10-30T23:33:37.030Z,25.00
2022-10-30T23:36:04.488Z,31.08
2022-10-30T23:38:31.269Z,36.85
2022-10-30T23:40:57.925Z,30.55
2022-10-30T23:43:24.632Z,26.05
2022-10-30T23:45:51.423Z,34.58
2022-10-30T23:48:18.056Z,26.98
2022-10-30T23:50:44.716Z,25.48
2022-10-30T23:53:11.396Z,26.83
2022-10-30T23:55:38.159Z,23.60
2022-10-30T23:58:04.966Z,24.08
